Flood From: 19-02-2018 06:00 Until: 20-02-2018 06:00 warning for: Flood Level: Yellow info button

Although rather usual in this region, locally or potentially dangerous phenomena are expected. (such as local winds, summer thunderstorms, rising streams or high waves) Be aware and pay attention to the latest weather updates, especially if you carry out activities exposed to weather or close to a stream or shoreline. 


Meteo18 Weather Cam more information Meteo18 Weather Cam


Thunder radar more information blitzortung!


Rain radar more information rain snow radar


Visit our other weather sites:

Template documentation
and downloads

And another site



Weather Underground History page Text

Daily Summary for October 19, 2017 Units:  English    Metric   Both
« Previous Day
Next Day »
Daily Weekly Monthly Yearly Custom
  High: Low: Average:
Temperature: TemperatureC °F 12.2 °F 16.5 °F
Dew Point: DewpointC °F 10.8 °F 12.7 °F
Humidity: Humidity % 59 % 79 %
Wind Speed: WindSpeedKMH mph 0.0 mph 4.6 mph
Wind Gust: WindSpeedGustKMH mph - -
Wind:- - SSW
Pressure: PressurehPa in 1010.0 in -
Precipitation: 0.0 in    
Historical Graphs
 
 
Tabular Data for October 19, 2017
Time Temperature Dew Point Pressure Wind Wind Speed Wind Gust Humidity Rainfall Rate (Hourly)
TemperatureC °F DewpointC °F PressurehPa in Calm     Humidity % HourlyPrecipMM in
00:02 14.1 °F 11.8 °F 1012.1 in Calm   1.6 mph 86 % 0.0 in
00:07 14.2 °F 11.9 °F 1012.1 in Calm   1.6 mph 86 % 0.0 in
00:12 14.2 °F 11.5 °F 1012.1 in Calm   1.6 mph 84 % 0.0 in
00:17 13.9 °F 11.4 °F 1011.7 in Calm   1.6 mph 85 % 0.0 in
00:22 14.0 °F 11.7 °F 1011.7 in Calm   1.6 mph 86 % 0.0 in
00:32 14.3 °F 11.8 °F 1011.7 in NNE 1.6 mph 1.6 mph 85 % 0.0 in
00:42 14.4 °F 11.7 °F 1011.7 in Calm   1.6 mph 84 % 0.0 in
00:47 14.2 °F 11.5 °F 1011.7 in Calm   1.6 mph 84 % 0.0 in
00:52 13.8 °F 11.3 °F 1011.7 in Calm   1.6 mph 85 % 0.0 in
00:57 13.6 °F 11.5 °F 1011.7 in Calm   1.6 mph 87 % 0.0 in
01:02 13.6 °F 11.6 °F 1011.7 in Calm   1.6 mph 88 % 0.0 in
01:12 13.4 °F 11.6 °F 1011.7 in Calm     89 % 0.0 in
01:17 13.4 °F 11.5 °F 1011.7 in Calm   1.6 mph 88 % 0.0 in
01:22 13.3 °F 11.4 °F 1011.7 in Calm   1.6 mph 88 % 0.0 in
01:32 13.7 °F 11.7 °F 1011.7 in North 1.6 mph 3.2 mph 88 % 0.0 in
01:42 13.3 °F 11.2 °F 1011.7 in NW 1.6 mph 3.2 mph 87 % 0.0 in
01:47 13.2 °F 11.4 °F 1011.7 in NW 1.6 mph 1.6 mph 89 % 0.0 in
01:52 13.2 °F 11.4 °F 1011.7 in Calm   1.6 mph 89 % 0.0 in
02:02 13.2 °F 11.3 °F 1011.7 in Calm   1.6 mph 88 % 0.0 in
02:07 13.0 °F 11.1 °F 1011.7 in Calm   1.6 mph 88 % 0.0 in
02:12 12.9 °F 11.1 °F 1011.4 in Calm   1.6 mph 89 % 0.0 in
02:17 13.1 °F 11.5 °F 1011.4 in Calm   1.6 mph 90 % 0.0 in
02:22 13.1 °F 11.3 °F 1011.7 in Calm   1.6 mph 89 % 0.0 in
02:32 12.8 °F 11.0 °F 1011.4 in Calm   1.6 mph 89 % 0.0 in
02:37 12.8 °F 11.0 °F 1011.7 in Calm   1.6 mph 89 % 0.0 in
02:42 13.0 °F 11.4 °F 1011.4 in North 1.6 mph 1.6 mph 90 % 0.0 in
02:47 13.2 °F 11.4 °F 1011.4 in NNE 1.6 mph 3.2 mph 89 % 0.0 in
02:52 13.1 °F 11.2 °F 1011.4 in Calm   3.2 mph 88 % 0.0 in
02:57 12.8 °F 10.9 °F 1011.4 in Calm   3.2 mph 88 % 0.0 in
03:02 12.6 °F 10.8 °F 1011.4 in Calm   3.2 mph 89 % 0.0 in
03:12 12.7 °F 11.3 °F 1011.4 in Calm   1.6 mph 91 % 0.0 in
03:17 12.8 °F 11.2 °F 1011.4 in Calm   1.6 mph 90 % 0.0 in
03:22 12.9 °F 11.3 °F 1011.4 in Calm   1.6 mph 90 % 0.0 in
03:27 12.8 °F 10.9 °F 1011.4 in Calm   1.6 mph 88 % 0.0 in
03:32 12.6 °F 10.8 °F 1011.4 in Calm   1.6 mph 89 % 0.0 in
03:37 12.6 °F 11.0 °F 1011.4 in Calm   1.6 mph 90 % 0.0 in
03:42 12.7 °F 11.1 °F 1011.1 in Calm   1.6 mph 90 % 0.0 in
03:47 12.8 °F 11.2 °F 1011.1 in North 1.6 mph 3.2 mph 90 % 0.0 in
03:52 12.9 °F 11.3 °F 1011.1 in Calm   3.2 mph 90 % 0.0 in
04:02 12.8 °F 11.0 °F 1011.1 in Calm   3.2 mph 89 % 0.0 in
04:12 12.2 °F 10.8 °F 1011.1 in WNW 1.6 mph 3.2 mph 91 % 0.0 in
04:17 12.3 °F 11.0 °F 1011.1 in Calm   3.2 mph 92 % 0.0 in
04:22 12.6 °F 11.5 °F 1011.1 in Calm   3.2 mph 93 % 0.0 in
04:32 13.2 °F 11.6 °F 1011.1 in North 1.6 mph 1.6 mph 90 % 0.0 in
04:37 13.1 °F 11.0 °F 1011.1 in Calm   1.6 mph 87 % 0.0 in
04:42 12.9 °F 11.1 °F 1011.1 in WNW 1.6 mph 1.6 mph 89 % 0.0 in
04:47 12.6 °F 11.0 °F 1011.1 in Calm   1.6 mph 90 % 0.0 in
04:52 12.9 °F 11.5 °F 1011.1 in Calm   1.6 mph 91 % 0.0 in
04:57 12.9 °F 11.3 °F 1011.1 in Calm   1.6 mph 90 % 0.0 in
05:02 12.8 °F 11.2 °F 1011.1 in Calm   1.6 mph 90 % 0.0 in
05:12 12.8 °F 11.2 °F 1011.1 in Calm   1.6 mph 90 % 0.0 in
05:22 12.6 °F 11.2 °F 1011.1 in Calm     91 % 0.0 in
05:32 12.6 °F 11.3 °F 1011.1 in Calm     92 % 0.0 in
05:37 12.8 °F 11.5 °F 1010.7 in Calm     92 % 0.0 in
05:42 12.9 °F 11.6 °F 1010.7 in Calm     92 % 0.0 in
05:47 13.1 °F 11.7 °F 1010.7 in Calm     91 % 0.0 in
05:52 13.2 °F 11.6 °F 1010.7 in Calm     90 % 0.0 in
05:57 12.9 °F 11.1 °F 1010.7 in Calm     89 % 0.0 in
06:02 12.6 °F 11.0 °F 1010.7 in Calm     90 % 0.0 in
06:07 12.8 °F 11.5 °F 1010.7 in Calm     92 % 0.0 in
06:12 12.8 °F 11.4 °F 1010.7 in Calm     91 % 0.0 in
06:17 12.9 °F 11.6 °F 1010.7 in Calm     92 % 0.0 in
06:22 13.0 °F 11.7 °F 1010.7 in Calm     92 % 0.0 in
06:32 13.3 °F 11.7 °F 1010.7 in Calm     90 % 0.0 in
06:37 13.4 °F 11.8 °F 1011.1 in Calm     90 % 0.0 in
06:42 13.1 °F 11.3 °F 1011.1 in Calm     89 % 0.0 in
06:47 12.9 °F 11.5 °F 1011.1 in Calm     91 % 0.0 in
06:57 13.2 °F 11.9 °F 1011.1 in Calm     92 % 0.0 in
07:02 13.4 °F 12.1 °F 1011.1 in Calm     92 % 0.0 in
07:12 13.8 °F 12.2 °F 1011.1 in Calm     90 % 0.0 in
07:17 13.8 °F 12.2 °F 1011.1 in Calm     90 % 0.0 in
07:22 13.8 °F 12.2 °F 1011.1 in Calm     90 % 0.0 in
07:27 13.9 °F 12.1 °F 1011.1 in Calm     89 % 0.0 in
07:32 13.9 °F 12.1 °F 1011.1 in Calm     89 % 0.0 in
07:37 13.9 °F 12.1 °F 1011.1 in Calm     89 % 0.0 in
07:42 13.9 °F 12.1 °F 1011.1 in Calm     89 % 0.0 in
07:52 13.8 °F 12.0 °F 1011.1 in Calm     89 % 0.0 in
07:57 13.9 °F 12.3 °F 1011.1 in Calm     90 % 0.0 in
08:02 14.0 °F 12.2 °F 1011.4 in Calm     89 % 0.0 in
08:12 14.2 °F 12.4 °F 1011.1 in Calm     89 % 0.0 in
08:17 14.2 °F 12.2 °F 1011.4 in Calm     88 % 0.0 in
08:22 14.2 °F 12.4 °F 1011.4 in Calm     89 % 0.0 in
08:32 14.3 °F 12.3 °F 1011.4 in Calm   1.6 mph 88 % 0.0 in
08:37 14.2 °F 12.2 °F 1011.4 in Calm   1.6 mph 88 % 0.0 in
08:42 14.3 °F 12.5 °F 1011.4 in Calm   1.6 mph 89 % 0.0 in
08:47 14.4 °F 12.4 °F 1011.7 in Calm   3.2 mph 88 % 0.0 in
08:52 14.4 °F 12.4 °F 1011.7 in Calm   3.2 mph 88 % 0.0 in
08:57 14.3 °F 12.3 °F 1011.7 in Calm   3.2 mph 88 % 0.0 in
09:02 14.4 °F 12.4 °F 1011.7 in Calm   1.6 mph 88 % 0.0 in
09:07 14.4 °F 12.4 °F 1011.7 in Calm   3.2 mph 88 % 0.0 in
09:17 14.6 °F 12.6 °F 1011.7 in Calm   3.2 mph 88 % 0.0 in
09:22 14.7 °F 12.7 °F 1011.7 in Calm   3.2 mph 88 % 0.0 in
09:32 14.9 °F 12.9 °F 1011.7 in Calm   3.2 mph 88 % 0.0 in
09:37 15.0 °F 13.0 °F 1011.7 in SW 1.6 mph 6.4 mph 88 % 0.0 in
09:42 15.2 °F 13.0 °F 1011.7 in SSW 6.4 mph 6.4 mph 87 % 0.0 in
09:47 15.3 °F 13.0 °F 1012.1 in SSW 3.2 mph 6.4 mph 86 % 0.0 in
09:52 15.5 °F 13.0 °F 1012.1 in Calm   8.0 mph 85 % 0.0 in
09:57 15.6 °F 13.1 °F 1012.1 in SSW 3.2 mph 8.0 mph 85 % 0.0 in
10:02 15.7 °F 13.2 °F 1012.1 in SW 3.2 mph 8.0 mph 85 % 0.0 in
10:12 15.9 °F 13.2 °F 1012.1 in Calm   8.0 mph 84 % 0.0 in
10:17 16.0 °F 13.3 °F 1012.1 in Calm   6.4 mph 84 % 0.0 in
10:22 16.2 °F 13.3 °F 1012.1 in SSW 1.6 mph 6.4 mph 83 % 0.0 in
10:32 16.7 °F 13.4 °F 1012.1 in SSW 1.6 mph 6.4 mph 81 % 0.0 in
10:37 16.8 °F 13.5 °F 1012.1 in Calm   4.8 mph 81 % 0.0 in
10:42 17.1 °F 13.6 °F 1012.1 in Calm   6.4 mph 80 % 0.0 in
10:52 17.3 °F 13.6 °F 1011.7 in SW 1.6 mph 8.0 mph 79 % 0.0 in
10:57 17.4 °F 13.5 °F 1011.7 in SW 4.8 mph 8.0 mph 78 % 0.0 in
11:02 17.8 °F 14.1 °F 1011.7 in SW 4.8 mph 8.0 mph 79 % 0.0 in
11:07 18.2 °F 13.9 °F 1012.1 in SSW 3.2 mph 8.0 mph 76 % 0.0 in
11:12 18.3 °F 13.8 °F 1012.1 in SSW 4.8 mph 8.0 mph 75 % 0.0 in
11:17 18.6 °F 14.1 °F 1012.1 in SW 6.4 mph 12.9 mph 75 % 0.0 in
11:22 18.8 °F 14.1 °F 1011.7 in SE 3.2 mph 12.9 mph 74 % 0.0 in
11:27 18.9 °F 14.0 °F 1011.7 in SW 4.8 mph 14.5 mph 73 % 0.0 in
11:32 19.0 °F 14.0 °F 1011.7 in SW 4.8 mph 14.5 mph 73 % 0.0 in
11:42 19.4 °F 14.0 °F 1011.7 in SE 4.8 mph 14.5 mph 71 % 0.0 in
11:52 20.1 °F 14.2 °F 1011.7 in SSW 1.6 mph 14.5 mph 69 % 0.0 in
11:57 20.1 °F 13.8 °F 1011.7 in South 4.8 mph 12.9 mph 67 % 0.0 in
12:02 20.1 °F 13.8 °F 1011.7 in SSW 8.0 mph 12.9 mph 67 % 0.0 in
12:12 20.4 °F 14.1 °F 1011.4 in SSW 8.0 mph 14.5 mph 67 % 0.0 in
12:17 20.5 °F 13.7 °F 1011.4 in SW 3.2 mph 14.5 mph 65 % 0.0 in
12:22 20.5 °F 13.7 °F 1011.4 in SSW 6.4 mph 14.5 mph 65 % 0.0 in
12:32 20.5 °F 13.9 °F 1011.4 in SSW 9.7 mph 16.1 mph 66 % 0.0 in
12:42 20.7 °F 13.6 °F 1011.4 in SSW 6.4 mph 14.5 mph 64 % 0.0 in
12:52 20.7 °F 13.6 °F 1011.4 in SSW 3.2 mph 17.7 mph 64 % 0.0 in
12:57 20.5 °F 13.7 °F 1011.4 in South 6.4 mph 12.9 mph 65 % 0.0 in
13:02 20.3 °F 13.3 °F 1011.4 in SSW 3.2 mph 12.9 mph 64 % 0.0 in
13:12 20.1 °F 13.3 °F 1011.4 in SSW 4.8 mph 12.9 mph 65 % 0.0 in
13:17 19.9 °F 13.1 °F 1011.4 in SE 4.8 mph 12.9 mph 65 % 0.0 in
13:22 20.0 °F 13.0 °F 1011.4 in SSW 9.7 mph 12.9 mph 64 % 0.0 in
13:32 20.1 °F 13.1 °F 1011.4 in SSW 6.4 mph 14.5 mph 64 % 0.0 in
13:42 20.4 °F 13.1 °F 1011.4 in SSE 3.2 mph 14.5 mph 63 % 0.0 in
13:47 20.6 °F 13.6 °F 1011.1 in East 6.4 mph 14.5 mph 64 % 0.0 in
13:52 20.7 °F 13.2 °F 1011.1 in South 3.2 mph 14.5 mph 62 % 0.0 in
14:02 20.8 °F 13.3 °F 1011.1 in SSW 9.7 mph 12.9 mph 62 % 0.0 in
14:07 20.9 °F 13.3 °F 1011.1 in SSW 6.4 mph 12.9 mph 62 % 0.0 in
14:12 21.3 °F 13.7 °F 1011.1 in SSW 1.6 mph 12.9 mph 62 % 0.0 in
14:17 21.6 °F 13.5 °F 1010.7 in SSE 11.3 mph 14.5 mph 60 % 0.0 in
14:22 21.7 °F 13.3 °F 1010.7 in South 4.8 mph 14.5 mph 59 % 0.0 in
14:27 21.7 °F 13.3 °F 1010.7 in SSW 3.2 mph 14.5 mph 59 % 0.0 in
14:32 21.6 °F 13.2 °F 1010.4 in South 11.3 mph 16.1 mph 59 % 0.0 in
14:37 21.4 °F 13.3 °F 1010.7 in SE 6.4 mph 14.5 mph 60 % 0.0 in
14:42 21.2 °F 13.1 °F 1010.7 in SSW 4.8 mph 14.5 mph 60 % 0.0 in
14:47 21.1 °F 13.0 °F 1010.7 in ESE 8.0 mph 16.1 mph 60 % 0.0 in
14:52 21.0 °F 13.2 °F 1010.7 in SW 8.0 mph 16.1 mph 61 % 0.0 in
14:57 20.9 °F 12.8 °F 1010.7 in SSE 1.6 mph 16.1 mph 60 % 0.0 in
15:07 20.8 °F 13.3 °F 1010.4 in SE 4.8 mph 12.9 mph 62 % 0.0 in
15:12 20.8 °F 13.5 °F 1010.7 in SE 6.4 mph 9.7 mph 63 % 0.0 in
15:17 20.8 °F 13.3 °F 1010.4 in SSW 1.6 mph 9.7 mph 62 % 0.0 in
15:22 20.8 °F 13.3 °F 1010.4 in SE 4.8 mph 9.7 mph 62 % 0.0 in
15:32 20.6 °F 13.3 °F 1010.4 in SSE 1.6 mph 12.9 mph 63 % 0.0 in
15:37 20.4 °F 13.1 °F 1010.4 in SSW 3.2 mph 12.9 mph 63 % 0.0 in
15:42 20.4 °F 13.4 °F 1010.4 in SSE 4.8 mph 11.3 mph 64 % 0.0 in
15:47 20.3 °F 13.0 °F 1010.0 in Calm   11.3 mph 63 % 0.0 in
15:52 20.2 °F 12.9 °F 1010.4 in SSW 4.8 mph 11.3 mph 63 % 0.0 in
15:57 20.2 °F 12.9 °F 1010.4 in SSE 4.8 mph 12.9 mph 63 % 0.0 in
16:02 20.3 °F 13.0 °F 1010.4 in SSW 4.8 mph 12.9 mph 63 % 0.0 in
16:07 20.4 °F 13.1 °F 1010.4 in South 8.0 mph 12.9 mph 63 % 0.0 in
16:12 20.3 °F 13.0 °F 1010.4 in SSW 4.8 mph 12.9 mph 63 % 0.0 in
16:17 20.4 °F 13.4 °F 1010.0 in SW 6.4 mph 9.7 mph 64 % 0.0 in
16:22 20.4 °F 13.4 °F 1010.0 in SSW 4.8 mph 9.7 mph 64 % 0.0 in
16:27 20.4 °F 13.4 °F 1010.0 in South 9.7 mph 12.9 mph 64 % 0.0 in
16:32 20.4 °F 13.4 °F 1010.0 in South 4.8 mph 12.9 mph 64 % 0.0 in
16:37 20.3 °F 13.5 °F 1010.0 in SW 3.2 mph 12.9 mph 65 % 0.0 in
16:42 20.2 °F 13.4 °F 1010.4 in SSW 4.8 mph 11.3 mph 65 % 0.0 in
16:47 20.2 °F 13.4 °F 1010.0 in SSW 4.8 mph 8.0 mph 65 % 0.0 in
16:52 20.1 °F 13.3 °F 1010.0 in SSW 3.2 mph 8.0 mph 65 % 0.0 in
16:57 20.1 °F 13.5 °F 1010.0 in SSW 6.4 mph 8.0 mph 66 % 0.0 in
17:02 19.9 °F 13.4 °F 1010.4 in SSW 4.8 mph 8.0 mph 66 % 0.0 in
17:07 19.9 °F 13.4 °F 1010.4 in SSW 4.8 mph 8.0 mph 66 % 0.0 in
17:12 19.8 °F 13.5 °F 1010.4 in SW 6.4 mph 8.0 mph 67 % 0.0 in
17:17 19.8 °F 13.5 °F 1010.4 in SW 4.8 mph 11.3 mph 67 % 0.0 in
17:22 19.9 °F 13.4 °F 1010.4 in SW 6.4 mph 11.3 mph 66 % 0.0 in
17:27 19.9 °F 13.6 °F 1010.4 in SW 8.0 mph 17.7 mph 67 % 0.0 in
17:32 19.9 °F 13.6 °F 1010.4 in SW 11.3 mph 17.7 mph 67 % 0.0 in
17:37 19.8 °F 13.7 °F 1010.4 in SW 9.7 mph 19.3 mph 68 % 0.0 in
17:42 19.3 °F 14.1 °F 1010.7 in WSW 8.0 mph 20.9 mph 72 % 0.0 in
17:47 18.9 °F 14.0 °F 1010.7 in SW 11.3 mph 24.1 mph 73 % 0.0 in
17:52 18.7 °F 14.0 °F 1010.7 in WSW 22.5 mph 24.1 mph 74 % 0.0 in
17:57 18.5 °F 14.0 °F 1010.7 in WSW 9.7 mph 27.4 mph 75 % 0.0 in
18:02 18.4 °F 13.9 °F 1011.1 in SSW 12.9 mph 27.4 mph 75 % 0.0 in
18:07 18.3 °F 13.8 °F 1010.7 in WSW 16.1 mph 27.4 mph 75 % 0.0 in
18:12 18.3 °F 13.8 °F 1011.1 in SW 12.9 mph 20.9 mph 75 % 0.0 in
18:17 18.3 °F 13.8 °F 1010.7 in WSW 11.3 mph 20.9 mph 75 % 0.0 in
18:22 18.2 °F 13.7 °F 1011.1 in SSW 6.4 mph 20.9 mph 75 % 0.0 in
18:32 18.2 °F 13.9 °F 1011.1 in SW 16.1 mph 20.9 mph 76 % 0.0 in
18:37 18.1 °F 13.8 °F 1010.7 in South 6.4 mph 17.7 mph 76 % 0.0 in
18:42 18.1 °F 13.8 °F 1011.1 in SW 6.4 mph 19.3 mph 76 % 0.0 in
18:47 17.9 °F 13.8 °F 1011.1 in SW 9.7 mph 19.3 mph 77 % 0.0 in
18:52 17.9 °F 13.8 °F 1011.1 in SW 9.7 mph 14.5 mph 77 % 0.0 in
19:02 17.8 °F 13.9 °F 1011.1 in SSW 6.4 mph 16.1 mph 78 % 0.0 in
19:07 17.7 °F 13.8 °F 1011.1 in SSW 6.4 mph 16.1 mph 78 % 0.0 in
19:12 17.7 °F 13.8 °F 1011.1 in SW 6.4 mph 16.1 mph 78 % 0.0 in
19:17 17.8 °F 13.7 °F 1011.1 in South 11.3 mph 20.9 mph 77 % 0.0 in
19:22 17.9 °F 13.8 °F 1011.1 in SW 17.7 mph 22.5 mph 77 % 0.0 in
19:32 18.1 °F 13.6 °F 1011.1 in WSW 11.3 mph 25.7 mph 75 % 0.0 in
19:37 18.1 °F 13.8 °F 1011.1 in WSW 3.2 mph 25.7 mph 76 % 0.0 in
19:42 18.1 °F 13.8 °F 1011.4 in WSW 9.7 mph 24.1 mph 76 % 0.0 in
19:47 18.1 °F 13.8 °F 1011.4 in WSW 4.8 mph 19.3 mph 76 % 0.0 in
19:52 18.1 °F 13.8 °F 1011.4 in West 3.2 mph 24.1 mph 76 % 0.0 in
19:57 18.1 °F 13.8 °F 1011.4 in SW 12.9 mph 24.1 mph 76 % 0.0 in
20:02 17.9 °F 13.6 °F 1011.4 in SW 11.3 mph 24.1 mph 76 % 0.0 in
20:12 17.7 °F 13.6 °F 1011.4 in WSW 6.4 mph 16.1 mph 77 % 0.0 in
20:17 17.6 °F 13.7 °F 1011.4 in SW 9.7 mph 16.1 mph 78 % 0.0 in
20:22 17.4 °F 13.5 °F 1011.4 in SW 8.0 mph 17.7 mph 78 % 0.0 in
20:32 17.6 °F 13.5 °F 1011.4 in SW 14.5 mph 22.5 mph 77 % 0.0 in
20:37 17.6 °F 13.5 °F 1011.4 in SW 8.0 mph 22.5 mph 77 % 0.0 in
20:42 17.6 °F 13.5 °F 1011.1 in SW 11.3 mph 22.5 mph 77 % 0.0 in
20:52 17.7 °F 13.6 °F 1011.1 in SW 9.7 mph 24.1 mph 77 % 0.0 in
20:57 17.5 °F 13.6 °F 1011.1 in SSW 6.4 mph 24.1 mph 78 % 0.0 in
21:02 17.4 °F 13.5 °F 1011.1 in SW 8.0 mph 20.9 mph 78 % 0.0 in
21:07 17.3 °F 13.6 °F 1011.1 in SSW 9.7 mph 17.7 mph 79 % 0.0 in
21:12 17.2 °F 13.5 °F 1011.1 in SSW 8.0 mph 17.7 mph 79 % 0.0 in
21:17 17.1 °F 13.6 °F 1011.1 in SW 9.7 mph 17.7 mph 80 % 0.0 in
21:22 17.1 °F 13.6 °F 1011.1 in SW 9.7 mph 20.9 mph 80 % 0.0 in
21:27 17.1 °F 13.6 °F 1011.1 in WSW 14.5 mph 20.9 mph 80 % 0.0 in
21:32 17.2 °F 13.5 °F 1011.4 in SW 11.3 mph 20.9 mph 79 % 0.0 in
21:37 17.2 °F 13.5 °F 1011.1 in SW 9.7 mph 20.9 mph 79 % 0.0 in
21:42 17.2 °F 13.5 °F 1011.1 in SW 11.3 mph 20.9 mph 79 % 0.0 in
21:47 17.2 °F 13.5 °F 1011.1 in SW 16.1 mph 19.3 mph 79 % 0.0 in
21:52 17.1 °F 13.4 °F 1011.1 in SW 6.4 mph 19.3 mph 79 % 0.0 in
21:57 17.0 °F 13.5 °F 1011.4 in SSW 14.5 mph 19.3 mph 80 % 0.0 in
22:02 16.8 °F 13.3 °F 1011.4 in SSW 8.0 mph 19.3 mph 80 % 0.0 in
22:07 16.7 °F 13.4 °F 1011.4 in SW 4.8 mph 16.1 mph 81 % 0.0 in
22:12 16.6 °F 13.3 °F 1011.4 in SW 4.8 mph 16.1 mph 81 % 0.0 in
22:17 16.5 °F 13.2 °F 1011.7 in SW 8.0 mph 12.9 mph 81 % 0.0 in
22:22 16.5 °F 13.2 °F 1011.7 in SW 14.5 mph 14.5 mph 81 % 0.0 in
22:27 16.5 °F 13.2 °F 1011.7 in SSW 8.0 mph 17.7 mph 81 % 0.0 in
22:32 16.5 °F 13.0 °F 1011.7 in SSW 14.5 mph 17.7 mph 80 % 0.0 in
22:37 16.6 °F 13.1 °F 1011.7 in SSW 8.0 mph 19.3 mph 80 % 0.0 in
22:42 16.6 °F 13.1 °F 1011.7 in SW 4.8 mph 19.3 mph 80 % 0.0 in
22:47 16.7 °F 13.2 °F 1012.1 in SSW 11.3 mph 19.3 mph 80 % 0.0 in
22:52 16.6 °F 13.1 °F 1012.1 in SW 8.0 mph 17.7 mph 80 % 0.0 in
22:57 16.4 °F 12.9 °F 1011.7 in SW 9.7 mph 17.7 mph 80 % 0.0 in
23:02 16.3 °F 13.0 °F 1011.7 in SSW 8.0 mph 17.7 mph 81 % 0.0 in
23:07 16.4 °F 12.9 °F 1011.7 in SW 20.9 mph 20.9 mph 80 % 0.0 in
23:12 16.6 °F 12.9 °F 1011.7 in SW 8.0 mph 22.5 mph 79 % 0.0 in
23:17 16.6 °F 12.9 °F 1011.7 in SW 12.9 mph 22.5 mph 79 % 0.0 in
23:22 16.5 °F 12.8 °F 1011.7 in SW 14.5 mph 22.5 mph 79 % 0.0 in
23:27 16.6 °F 12.9 °F 1011.7 in SSW 12.9 mph 24.1 mph 79 % 0.0 in
23:37 16.6 °F 12.9 °F 1011.7 in SSW 9.7 mph 25.7 mph 79 % 0.0 in
23:42 16.4 °F 12.9 °F 1011.7 in SW 14.5 mph 22.5 mph 80 % 0.0 in
23:47 16.3 °F 12.8 °F 1011.7 in South 14.5 mph 19.3 mph 80 % 0.0 in
23:52 16.2 °F 12.9 °F 1011.7 in SW 11.3 mph 22.5 mph 81 % 0.0 in
23:57 16.2 °F 12.9 °F 1011.7 in SSW 11.3 mph 22.5 mph 81 % 0.0 in
Meteo18
Compliments of Weather Underground - 4 mb

Script developed by  Jim McMurry - jmcmurry@mwt.net Adapted for the template by  Wim van der Kuil - Leuven-Template.eu

You find our weather info also at:

European Weather Network

Weather Underground

Equipment we use:

Weather-station
Davis Vue

Weather-program
Meteobridge

Weather-server
Raspberry PI 2 B+

Provider
1 and 1

Davis Vue

Meteobridge

Raspberry PI 2 B+

1 and 1